createdAt,value
2018-02-12T00:02:00.029Z,12.02
2018-02-12T00:04:29.328Z,2.40
2018-02-12T00:06:58.682Z,10.48
2018-02-12T00:09:27.822Z,7.37
2018-02-12T00:11:57.461Z,7.12
2018-02-12T00:14:26.713Z,1.95
2018-02-12T00:16:55.934Z,1.60
2018-02-12T00:19:25.373Z,6.37
2018-02-12T00:21:55.512Z,3.42
2018-02-12T00:24:24.724Z,2.35
2018-02-12T00:27:01.798Z,1.62
2018-02-12T00:29:31.179Z,1.50
2018-02-12T00:32:02.417Z,1.55
2018-02-12T00:34:31.729Z,2.35
2018-02-12T00:37:01.018Z,1.00
2018-02-12T00:39:31.351Z,1.95
2018-02-12T00:42:00.946Z,0.65
2018-02-12T00:44:30.214Z,4.50
2018-02-12T00:46:59.577Z,2.55
2018-02-12T00:49:28.997Z,0.70
2018-02-12T00:51:58.310Z,1.00
2018-02-12T00:54:28.447Z,0.90
2018-02-12T00:57:08.705Z,3.45
2018-02-12T00:59:38.182Z,2.30
2018-02-12T01:02:07.460Z,1.40
2018-02-12T01:04:36.759Z,1.73
2018-02-12T01:07:06.036Z,1.95
2018-02-12T01:09:35.368Z,4.30
2018-02-12T01:12:04.616Z,1.20
2018-02-12T01:14:36.777Z,2.55
2018-02-12T01:17:07.207Z,3.40
2018-02-12T01:19:49.308Z,5.95
2018-02-12T01:22:20.408Z,4.90
2018-02-12T01:24:53.565Z,3.17
2018-02-12T01:27:23.002Z,3.47
2018-02-12T01:29:58.669Z,4.93
2018-02-12T01:32:28.092Z,4.03
2018-02-12T01:37:47.268Z,1.83
2018-02-12T01:40:16.373Z,1.23
2018-02-12T01:42:49.601Z,1.02
2018-02-12T01:45:19.454Z,5.37
2018-02-12T01:47:49.126Z,1.52
2018-02-12T01:50:19.381Z,1.10
2018-02-12T01:52:48.593Z,1.90
2018-02-12T01:55:17.507Z,4.32
2018-02-12T01:57:45.512Z,0.80
2018-02-12T02:00:28.778Z,2.00
2018-02-12T02:02:56.479Z,1.50
2018-02-12T02:05:24.055Z,2.85
2018-02-12T02:07:51.613Z,5.20
2018-02-12T02:13:13.015Z,3.35
2018-02-12T02:15:40.570Z,1.50
2018-02-12T02:18:08.205Z,2.55
2018-02-12T02:20:35.811Z,5.18
2018-02-12T02:23:03.452Z,1.30
2018-02-12T02:25:31.064Z,2.22
2018-02-12T02:27:58.707Z,2.45
2018-02-12T02:30:26.349Z,1.12
2018-02-12T02:32:54.285Z,4.50
2018-02-12T02:35:22.377Z,1.98
2018-02-12T02:37:50.460Z,4.15
2018-02-12T02:40:18.022Z,1.67
2018-02-12T02:42:45.655Z,4.07
2018-02-12T02:45:14.721Z,3.55
2018-02-12T02:47:42.336Z,2.67
2018-02-12T02:50:09.899Z,4.32
2018-02-12T02:52:37.525Z,2.22
2018-02-12T02:55:05.112Z,2.45
2018-02-12T02:57:32.738Z,4.53
2018-02-12T03:00:00.324Z,9.95
2018-02-12T03:02:34.714Z,4.40
2018-02-12T03:05:02.497Z,2.80
2018-02-12T03:07:51.768Z,5.62
2018-02-12T03:10:19.532Z,4.78
2018-02-12T03:12:47.112Z,1.70
2018-02-12T03:15:20.607Z,7.65
2018-02-12T03:17:48.243Z,1.65
2018-02-12T03:20:15.815Z,1.05
2018-02-12T03:22:43.549Z,1.83
2018-02-12T03:25:12.833Z,7.43
2018-02-12T03:27:47.179Z,2.35
2018-02-12T03:30:14.920Z,2.65
2018-02-12T03:32:42.952Z,7.20
2018-02-12T03:35:10.586Z,6.37
2018-02-12T03:37:38.211Z,2.72
2018-02-12T03:40:05.779Z,7.03
2018-02-12T03:42:33.342Z,3.70
2018-02-12T03:45:02.201Z,2.60
2018-02-12T03:47:29.909Z,3.00
2018-02-12T03:49:58.271Z,1.85
2018-02-12T03:52:25.924Z,11.82
2018-02-12T03:54:53.557Z,10.60
2018-02-12T03:57:22.299Z,5.80
2018-02-12T03:59:50.041Z,4.32
2018-02-12T04:02:17.811Z,4.28
2018-02-12T04:04:45.434Z,4.75
2018-02-12T04:07:13.113Z,6.82
2018-02-12T04:09:41.941Z,11.30
2018-02-12T04:12:09.657Z,14.38
2018-02-12T04:14:37.648Z,8.15
2018-02-12T04:17:05.615Z,3.80
2018-02-12T04:19:33.371Z,11.40
2018-02-12T04:22:01.387Z,8.55
2018-02-12T04:24:29.191Z,14.32
2018-02-12T04:26:56.822Z,5.47
2018-02-12T04:29:25.244Z,5.32
2018-02-12T04:31:52.906Z,3.85
2018-02-12T04:34:20.513Z,3.58
2018-02-12T04:36:48.156Z,9.07
2018-02-12T04:39:19.788Z,1.92
2018-02-12T04:41:47.451Z,8.48
2018-02-12T04:44:15.290Z,6.37
2018-02-12T04:46:43.174Z,2.75
2018-02-12T04:49:10.913Z,4.65
2018-02-12T04:51:39.310Z,2.00
2018-02-12T04:54:07.776Z,4.40
2018-02-12T04:56:35.460Z,6.15
2018-02-12T04:59:03.126Z,6.68
2018-02-12T05:01:30.773Z,5.32
2018-02-12T05:03:58.444Z,5.82
2018-02-12T05:06:26.120Z,3.75
2018-02-12T05:08:53.756Z,1.70
2018-02-12T05:11:21.457Z,12.68
2018-02-12T05:13:49.197Z,2.60
2018-02-12T05:16:17.603Z,3.03
2018-02-12T05:18:46.042Z,9.23
2018-02-12T05:21:13.709Z,3.65
2018-02-12T05:23:41.368Z,4.65
2018-02-12T05:26:09.028Z,6.10
2018-02-12T05:28:36.671Z,7.28
2018-02-12T05:31:10.028Z,5.57
2018-02-12T05:33:37.646Z,7.12
2018-02-12T05:36:05.305Z,13.90
2018-02-12T05:38:33.065Z,2.12
2018-02-12T05:41:00.674Z,5.20
2018-02-12T05:43:28.281Z,7.25
2018-02-12T05:45:55.988Z,5.87
2018-02-12T05:48:23.604Z,6.30
2018-02-12T05:50:51.283Z,6.03
2018-02-12T05:53:18.927Z,9.85
2018-02-12T05:55:46.568Z,12.60
2018-02-12T05:58:14.198Z,4.10
2018-02-12T06:00:41.884Z,6.53
2018-02-12T06:03:11.493Z,4.53
2018-02-12T06:05:42.216Z,10.20
2018-02-12T06:08:10.640Z,3.47
2018-02-12T06:10:38.276Z,1.10
2018-02-12T06:13:05.997Z,3.05
2018-02-12T06:15:33.622Z,5.72
2018-02-12T06:18:01.261Z,3.95
2018-02-12T06:20:29.680Z,4.62
2018-02-12T06:22:57.391Z,8.52
2018-02-12T06:25:25.102Z,3.95
2018-02-12T06:27:52.766Z,3.33
2018-02-12T06:30:20.419Z,3.35
2018-02-12T06:32:48.378Z,13.95
2018-02-12T06:35:16.764Z,1.58
2018-02-12T06:37:44.384Z,3.00
2018-02-12T06:40:11.986Z,2.35
2018-02-12T06:42:39.755Z,1.60
2018-02-12T06:45:19.094Z,5.43
2018-02-12T06:47:46.727Z,4.47
2018-02-12T06:50:14.343Z,2.95
2018-02-12T06:52:42.088Z,3.65
2018-02-12T06:55:12.837Z,5.40
2018-02-12T06:57:40.712Z,3.62
2018-02-12T07:00:09.212Z,4.18
2018-02-12T07:02:36.880Z,4.72
2018-02-12T07:05:04.468Z,3.92
2018-02-12T07:07:32.806Z,5.00
2018-02-12T07:10:00.431Z,3.90
2018-02-12T07:12:28.062Z,3.47
2018-02-12T07:15:22.258Z,5.15
2018-02-12T07:17:49.945Z,6.43
2018-02-12T07:20:17.511Z,5.47
2018-02-12T07:22:45.845Z,2.70
2018-02-12T07:25:13.400Z,3.67
2018-02-12T07:27:40.979Z,2.97
2018-02-12T07:30:08.549Z,5.72
2018-02-12T07:32:36.131Z,5.30
2018-02-12T07:35:03.691Z,4.90
2018-02-12T07:37:31.297Z,3.87
2018-02-12T07:40:00.508Z,8.60
2018-02-12T07:42:30.342Z,3.37
2018-02-12T07:44:59.612Z,4.28
2018-02-12T07:47:28.838Z,6.00
2018-02-12T07:49:58.207Z,3.87
2018-02-12T07:52:27.403Z,9.38
2018-02-12T07:54:56.608Z,5.75
2018-02-12T07:57:25.821Z,3.90
2018-02-12T07:59:55.103Z,7.82
2018-02-12T08:02:24.350Z,3.33
2018-02-12T08:04:53.597Z,7.65
2018-02-12T08:07:22.871Z,5.70
2018-02-12T08:09:52.059Z,4.57
2018-02-12T08:12:21.249Z,7.05
2018-02-12T08:14:50.512Z,10.25
2018-02-12T08:17:19.715Z,6.18
2018-02-12T08:19:49.955Z,10.57
2018-02-12T08:22:19.176Z,5.70
2018-02-12T08:24:48.415Z,6.25
2018-02-12T08:27:17.640Z,7.07
2018-02-12T08:29:46.847Z,4.03
2018-02-12T08:32:16.063Z,7.93
2018-02-12T08:34:45.281Z,6.87
2018-02-12T08:37:14.791Z,4.57
2018-02-12T08:39:44.004Z,8.15
2018-02-12T08:42:13.274Z,7.47
2018-02-12T08:44:42.475Z,4.60
2018-02-12T08:47:11.754Z,9.27
2018-02-12T08:49:40.975Z,32.65
2018-02-12T08:52:10.236Z,8.95
2018-02-12T09:00:15.311Z,3.47
2018-02-12T09:02:44.502Z,6.68
2018-02-12T09:05:13.739Z,4.60
2018-02-12T09:07:42.968Z,2.42
2018-02-12T09:10:18.671Z,4.47
2018-02-12T09:12:47.945Z,5.30
2018-02-12T09:15:17.158Z,3.78
2018-02-12T09:17:46.346Z,2.80
2018-02-12T09:20:19.340Z,3.22
2018-02-12T09:22:48.596Z,2.47
2018-02-12T09:25:17.815Z,3.72
2018-02-12T09:27:47.018Z,3.40
2018-02-12T09:30:16.255Z,7.35
2018-02-12T09:32:45.487Z,2.55
2018-02-12T09:35:14.679Z,4.25
2018-02-12T09:37:43.947Z,6.70
2018-02-12T09:40:15.628Z,3.80
2018-02-12T09:42:44.861Z,2.92
2018-02-12T09:45:14.100Z,3.85
2018-02-12T09:47:43.303Z,3.65
2018-02-12T09:50:12.518Z,4.50
2018-02-12T09:52:41.719Z,3.60
2018-02-12T09:55:10.978Z,3.87
2018-02-12T09:57:40.217Z,5.20
2018-02-12T10:00:09.448Z,13.52
2018-02-12T10:02:38.649Z,4.30
2018-02-12T10:05:07.867Z,10.18
2018-02-12T10:07:37.128Z,7.95
2018-02-12T10:10:06.330Z,7.43
2018-02-12T10:12:35.546Z,4.68
2018-02-12T10:15:04.759Z,4.80
2018-02-12T10:17:34.022Z,4.07
2018-02-12T10:20:03.215Z,4.57
2018-02-12T10:22:32.459Z,4.07
2018-02-12T10:25:01.663Z,2.08
2018-02-12T10:27:30.867Z,5.22
2018-02-12T10:30:00.187Z,4.28
2018-02-12T10:32:29.439Z,3.08
2018-02-12T10:34:58.662Z,2.50
2018-02-12T10:37:27.864Z,4.68
2018-02-12T10:39:57.083Z,3.42
2018-02-12T10:42:26.290Z,4.93
2018-02-12T10:44:55.523Z,7.68
2018-02-12T10:47:24.719Z,2.20
2018-02-12T10:49:53.940Z,5.57
2018-02-12T10:52:23.167Z,6.93
2018-02-12T10:54:52.505Z,1.50
2018-02-12T10:57:21.703Z,3.28
2018-02-12T10:59:50.930Z,3.60
2018-02-12T11:02:20.153Z,7.10
2018-02-12T11:04:49.349Z,5.55
2018-02-12T11:07:18.618Z,7.07
2018-02-12T11:09:47.859Z,2.45
2018-02-12T11:12:17.083Z,8.15
2018-02-12T11:14:46.297Z,4.68
2018-02-12T11:17:15.502Z,4.65
2018-02-12T11:19:44.719Z,1.48
2018-02-12T11:22:13.917Z,3.35
2018-02-12T11:24:43.145Z,3.90
2018-02-12T11:27:12.718Z,2.40
2018-02-12T11:29:41.923Z,6.35
2018-02-12T11:32:11.132Z,5.82
2018-02-12T11:34:40.353Z,4.60
2018-02-12T11:37:09.876Z,3.45
2018-02-12T11:39:39.090Z,6.68
2018-02-12T11:42:08.312Z,7.15
2018-02-12T11:44:37.522Z,1.50
2018-02-12T11:47:06.732Z,7.65
2018-02-12T11:49:35.942Z,2.10
2018-02-12T11:52:05.151Z,4.87
2018-02-12T11:54:34.366Z,3.83
2018-02-12T11:57:03.582Z,4.25
2018-02-12T11:59:32.800Z,2.08
2018-02-12T12:02:02.010Z,2.65
2018-02-12T12:04:31.235Z,2.67
2018-02-12T12:07:00.469Z,5.05
2018-02-12T12:09:29.674Z,6.90
2018-02-12T12:11:58.899Z,8.20
2018-02-12T12:14:28.103Z,3.72
2018-02-12T12:16:57.307Z,3.35
2018-02-12T12:19:26.518Z,3.58
2018-02-12T12:21:55.738Z,5.28
2018-02-12T12:24:24.945Z,24.17
2018-02-12T12:26:54.159Z,14.70
2018-02-12T12:29:23.389Z,24.30
2018-02-12T12:31:52.621Z,36.00
2018-02-12T12:34:21.846Z,6.57
2018-02-12T12:36:51.059Z,3.75
2018-02-12T12:39:20.221Z,5.55
2018-02-12T12:41:49.431Z,5.15
2018-02-12T12:44:18.628Z,8.50
2018-02-12T12:46:47.838Z,20.92
2018-02-12T12:49:17.047Z,15.55
2018-02-12T12:51:46.259Z,5.18
2018-02-12T12:54:15.469Z,6.18
2018-02-12T12:56:44.680Z,4.03
2018-02-12T12:59:13.890Z,10.38
2018-02-12T13:01:43.108Z,6.15
2018-02-12T13:04:12.313Z,3.00
2018-02-12T13:06:41.524Z,5.93
2018-02-12T13:09:10.785Z,2.92
2018-02-12T13:11:40.001Z,5.12
2018-02-12T13:14:09.203Z,7.25
2018-02-12T13:16:38.420Z,10.20
2018-02-12T13:19:07.614Z,5.15
2018-02-12T13:21:36.839Z,10.00
2018-02-12T13:24:06.061Z,9.10
2018-02-12T13:26:35.275Z,4.68
2018-02-12T13:29:04.584Z,13.82
2018-02-12T13:31:33.873Z,19.33
2018-02-12T13:34:03.155Z,6.68
2018-02-12T13:36:32.434Z,2.50
2018-02-12T13:39:01.743Z,6.28
2018-02-12T13:41:31.052Z,4.68
2018-02-12T13:44:00.407Z,6.00
2018-02-12T13:46:29.708Z,3.45
2018-02-12T13:48:58.315Z,3.45
2018-02-12T13:51:25.991Z,3.80
2018-02-12T13:53:54.435Z,1.92
2018-02-12T13:56:22.109Z,2.87
2018-02-12T13:58:49.825Z,2.30
2018-02-12T14:01:19.511Z,2.17
2018-02-12T14:03:49.719Z,3.20
2018-02-12T14:06:19.135Z,9.82
2018-02-12T14:08:48.378Z,1.95
2018-02-12T14:11:17.611Z,8.18
2018-02-12T14:13:46.841Z,3.95
2018-02-12T14:16:16.071Z,2.58
2018-02-12T14:18:45.305Z,6.80
2018-02-12T14:21:14.502Z,3.00
2018-02-12T14:23:43.706Z,5.03
2018-02-12T14:26:12.908Z,4.40
2018-02-12T14:28:42.126Z,3.40
2018-02-12T14:31:11.336Z,4.90
2018-02-12T14:33:40.565Z,2.50
2018-02-12T14:36:09.767Z,2.75
2018-02-12T14:38:38.960Z,3.17
2018-02-12T14:41:08.160Z,2.78
2018-02-12T14:43:37.355Z,18.35
2018-02-12T14:46:06.558Z,3.28
2018-02-12T14:48:35.773Z,5.30
2018-02-12T14:51:04.981Z,6.12
2018-02-12T14:53:34.198Z,24.90
2018-02-12T14:56:03.402Z,8.85
2018-02-12T14:58:35.098Z,5.40
2018-02-12T15:01:04.370Z,3.20
2018-02-12T15:03:33.635Z,5.50
2018-02-12T15:06:02.851Z,9.10
2018-02-12T15:08:32.095Z,16.48
2018-02-12T15:11:01.299Z,15.25
2018-02-12T15:13:30.488Z,4.95
2018-02-12T15:15:58.058Z,1.87
2018-02-12T15:18:25.611Z,28.23
2018-02-12T15:20:53.298Z,4.03
2018-02-12T15:23:30.279Z,6.75
2018-02-12T15:25:58.797Z,10.70
2018-02-12T15:28:26.355Z,4.55
2018-02-12T15:30:54.138Z,2.55
2018-02-12T15:33:22.263Z,2.83
2018-02-12T15:35:49.818Z,4.97
2018-02-12T15:38:17.376Z,3.22
2018-02-12T15:40:45.060Z,4.55
2018-02-12T15:43:12.703Z,4.90
2018-02-12T15:45:40.261Z,5.80
2018-02-12T15:48:08.414Z,3.55
2018-02-12T15:50:35.991Z,4.15
2018-02-12T15:53:03.549Z,3.85
2018-02-12T15:55:31.107Z,4.03
2018-02-12T15:57:58.667Z,4.95
2018-02-12T16:00:26.244Z,8.65
2018-02-12T16:02:53.882Z,4.60
2018-02-12T16:05:21.493Z,5.15
2018-02-12T16:07:49.111Z,7.28
2018-02-12T16:10:17.428Z,5.12
2018-02-12T16:12:44.984Z,8.48
2018-02-12T16:15:12.551Z,3.58
2018-02-12T16:17:40.943Z,5.85
2018-02-12T16:20:08.538Z,6.07
2018-02-12T16:22:36.171Z,6.30
2018-02-12T16:25:04.705Z,6.37
2018-02-12T16:27:32.623Z,7.68
2018-02-12T16:30:00.325Z,6.85
2018-02-12T16:32:28.650Z,5.97
2018-02-12T16:34:56.361Z,9.00
2018-02-12T16:37:30.782Z,5.65
2018-02-12T16:39:58.336Z,6.80
2018-02-12T16:42:25.910Z,9.30
2018-02-12T16:44:53.484Z,6.75
2018-02-12T16:47:22.162Z,9.82
2018-02-12T16:49:49.797Z,7.47
2018-02-12T16:52:20.322Z,7.45
2018-02-12T16:54:47.957Z,8.15
2018-02-12T16:57:15.512Z,7.55
2018-02-12T16:59:43.163Z,5.72
2018-02-12T17:02:11.486Z,5.15
2018-02-12T17:04:39.139Z,3.37
2018-02-12T17:07:07.492Z,2.62
2018-02-12T17:09:35.207Z,5.70
2018-02-12T17:12:03.547Z,3.12
2018-02-12T17:14:31.110Z,6.25
2018-02-12T17:16:59.193Z,3.90
2018-02-12T17:19:26.836Z,4.90
2018-02-12T17:21:54.437Z,7.80
2018-02-12T17:24:22.089Z,5.87
2018-02-12T17:26:49.654Z,4.37
2018-02-12T17:29:18.007Z,5.07
2018-02-12T17:31:45.557Z,5.35
2018-02-12T17:34:13.154Z,12.45
2018-02-12T17:36:40.761Z,8.43
2018-02-12T17:39:09.116Z,4.90
2018-02-12T17:41:36.687Z,7.45
2018-02-12T17:44:05.044Z,7.62
2018-02-12T17:46:32.601Z,6.62
2018-02-12T17:49:00.159Z,6.87
2018-02-12T17:51:28.491Z,7.03
2018-02-12T17:53:56.072Z,5.62
2018-02-12T17:56:23.635Z,5.80
2018-02-12T17:58:51.207Z,8.68
2018-02-12T18:01:18.787Z,5.95
2018-02-12T18:03:46.351Z,6.43
2018-02-12T18:06:13.909Z,9.80
2018-02-12T18:08:41.487Z,12.10
2018-02-12T18:11:09.061Z,7.37
2018-02-12T18:13:36.660Z,11.82
2018-02-12T18:16:04.222Z,8.13
2018-02-12T18:18:31.827Z,13.32
2018-02-12T18:20:59.411Z,8.82
2018-02-12T18:23:27.755Z,8.32
2018-02-12T18:26:01.132Z,6.68
2018-02-12T18:28:28.697Z,8.73
2018-02-12T18:30:56.284Z,8.57
2018-02-12T18:33:23.871Z,10.27
2018-02-12T18:35:51.461Z,9.60
2018-02-12T18:38:19.204Z,20.37
2018-02-12T18:40:46.760Z,10.35
2018-02-12T18:43:14.325Z,9.20
2018-02-12T18:45:42.660Z,7.28
2018-02-12T18:48:10.263Z,10.48
2018-02-12T18:50:37.845Z,6.85
2018-02-12T18:53:06.186Z,10.60
2018-02-12T18:55:33.843Z,16.73
2018-02-12T18:58:02.258Z,6.72
2018-02-12T19:00:29.855Z,8.25
2018-02-12T19:02:57.420Z,18.58
2018-02-12T19:05:26.208Z,7.15
2018-02-12T19:07:53.796Z,11.25
2018-02-12T19:10:22.175Z,4.80
2018-02-12T19:12:49.743Z,8.15
2018-02-12T19:15:17.366Z,10.85
2018-02-12T19:17:45.687Z,9.82
2018-02-12T19:20:16.153Z,5.25
2018-02-12T19:22:46.755Z,10.02
2018-02-12T19:42:59.439Z,7.80
2018-02-12T19:45:27.800Z,5.03
2018-02-12T19:47:55.384Z,19.20
2018-02-12T19:50:23.548Z,6.37
2018-02-12T19:52:51.145Z,4.35
2018-02-12T19:55:18.715Z,8.35
2018-02-12T19:57:46.295Z,9.70
2018-02-12T20:00:13.846Z,4.80
2018-02-12T20:02:41.934Z,9.15
2018-02-12T20:05:09.619Z,8.30
2018-02-12T20:07:37.237Z,10.82
2018-02-12T20:10:04.829Z,8.80
2018-02-12T20:12:32.387Z,7.37
2018-02-12T20:14:59.952Z,12.57
2018-02-12T20:17:27.549Z,5.22
2018-02-12T20:19:55.292Z,12.37
2018-02-12T20:22:22.883Z,6.72
2018-02-12T20:24:50.469Z,4.70
2018-02-12T20:27:18.101Z,20.05
2018-02-12T20:29:46.500Z,8.00
2018-02-12T20:32:14.160Z,11.75
2018-02-12T20:34:42.651Z,7.50
2018-02-12T20:37:10.317Z,17.33
2018-02-12T20:39:37.893Z,10.75
2018-02-12T20:42:05.568Z,10.63
2018-02-12T20:44:33.932Z,7.37
2018-02-12T20:47:01.512Z,11.98
2018-02-12T20:49:29.129Z,12.20
2018-02-12T20:51:56.980Z,16.17
2018-02-12T20:54:25.391Z,10.18
2018-02-12T20:56:53.727Z,10.73
2018-02-12T20:59:21.291Z,10.15
2018-02-12T21:01:48.909Z,12.07
2018-02-12T21:04:16.526Z,8.73
2018-02-12T21:06:44.153Z,15.75
2018-02-12T21:09:11.765Z,6.62
2018-02-12T21:11:39.372Z,9.15
2018-02-12T21:14:06.958Z,12.20
2018-02-12T21:16:34.541Z,12.88
2018-02-12T21:19:02.195Z,10.32
2018-02-12T21:21:29.840Z,11.73
2018-02-12T21:23:58.193Z,10.00
2018-02-12T21:26:26.551Z,8.60
2018-02-12T21:28:54.337Z,11.52
2018-02-12T21:31:21.896Z,10.35
2018-02-12T21:33:49.534Z,11.45
2018-02-12T21:36:17.092Z,14.43
2018-02-12T21:38:45.468Z,17.50
2018-02-12T21:41:13.579Z,12.37
2018-02-12T21:43:41.906Z,13.52
2018-02-12T21:46:09.583Z,16.67
2018-02-12T21:48:38.347Z,19.37
2018-02-12T21:51:06.478Z,10.80
2018-02-12T21:53:34.587Z,12.43
2018-02-12T21:56:04.256Z,13.85
2018-02-12T21:58:39.610Z,11.77
2018-02-12T22:01:07.339Z,14.85
2018-02-12T22:03:34.928Z,23.90
2018-02-12T22:06:04.636Z,20.05
2018-02-12T22:08:34.328Z,18.17
2018-02-12T22:11:05.737Z,15.27
2018-02-12T22:13:33.451Z,18.98
2018-02-12T22:16:01.813Z,22.08
2018-02-12T22:18:29.472Z,21.65
2018-02-12T22:20:59.076Z,20.12
2018-02-12T22:23:26.710Z,16.62
2018-02-12T22:26:00.314Z,15.05
2018-02-12T22:28:41.227Z,20.15
2018-02-12T22:31:11.477Z,16.35
2018-02-12T22:33:39.312Z,31.40
2018-02-12T22:36:09.203Z,16.75
2018-02-12T22:38:39.394Z,23.27
2018-02-12T22:41:10.134Z,20.77
2018-02-12T22:43:39.843Z,17.20
2018-02-12T22:46:08.086Z,18.40
2018-02-12T22:48:35.669Z,16.58
2018-02-12T22:51:04.387Z,23.12
2018-02-12T22:53:31.973Z,25.40
2018-02-12T22:55:59.991Z,27.65
2018-02-12T22:58:28.607Z,24.25
2018-02-12T23:00:57.534Z,29.63
2018-02-12T23:03:25.171Z,20.08
2018-02-12T23:05:53.499Z,18.08
2018-02-12T23:08:24.852Z,22.70
2018-02-12T23:10:52.949Z,23.92
2018-02-12T23:13:20.560Z,23.05
2018-02-12T23:15:48.172Z,15.65
2018-02-12T23:18:16.516Z,16.75
2018-02-12T23:20:44.128Z,18.25
2018-02-12T23:23:11.795Z,24.23
2018-02-12T23:25:41.903Z,19.40
2018-02-12T23:28:09.819Z,20.23
2018-02-12T23:30:40.294Z,14.75
2018-02-12T23:33:12.840Z,20.40
2018-02-12T23:35:41.166Z,18.50
2018-02-12T23:38:08.952Z,26.65
2018-02-12T23:40:39.843Z,11.85
2018-02-12T23:43:10.039Z,23.90
2018-02-12T23:45:37.664Z,21.60
2018-02-12T23:48:05.313Z,22.62
2018-02-12T23:50:34.028Z,18.77
2018-02-12T23:53:02.633Z,13.70
2018-02-12T23:55:31.005Z,16.45
2018-02-12T23:57:59.113Z,15.90
